PWSweather.com
Personal Weather Stations
Station Observations
BRISTOL
HorfieldFilton, BristolGB BS7

HorfieldFiltonBristolGB BS7

Lat: 51.5, Lon: -2.576

Elevation: 272

Station Type: Davis VP2

http://www.martynhicks.co.uk/weather/data.php

Latest ConditionsUpdated 6:10:01 PM GMT Saturday, Apr 25, 2015
Currently Today's Max Today's Min Today's Average
Temperature 53.1°F11.7°C 62.6°F17.0°C 52.0°F11.1°C 55.8°F13.2°C
Dew Point 50.2°F10.1°C 50.7°F10.4°C 46.3°F7.9°C 49.0°F9.4°C
Winds 1.5 mph WNW2.4 kmh WNW 9.2 mph WSW14.8 kmh WSW - 3.8 mph 6.1 kmh
Wind Gusts 3.0 mph4.8 kmh 20.0 mph32.2 kmh - -
Humidity 90% 93% 58% 79%
Pressure 29.68 in1005.1 mb 29.73 in1006.8 mb 29.66 in1004.4 mb -
Precipitation - 0.03 in0.8 mm - -
Hour Temp Dew Point Humidity Winds Wind Gusts Pressure Precip Precip Rate Daily Precip Total
06:10 PM 53.1°F11.7°C 50.2°F10.1°C 90% 1.5 mph WNW2.4 kmh WNW 3.0 mph4.8 kmh 29.68 in1005.1 mb - 0.01 in0.3 mm 0.03 in0.8 mm
06:00 PM 53.5°F11.9°C 50.3°F10.2°C 89% 1.9 mph WSW3.1 kmh WSW 7.0 mph11.3 kmh 29.68 in1005.1 mb - 0.02 in0.5 mm 0.03 in0.8 mm
05:50 PM 53.8°F12.1°C 50.6°F10.3°C 89% 0.7 mph WSW1.1 kmh WSW 2.0 mph3.2 kmh 29.67 in1004.7 mb - 0.01 in0.3 mm 0.02 in0.5 mm
05:40 PM 53.8°F12.1°C 50.3°F10.2°C 88% 0.3 mph W0.5 kmh W 3.0 mph4.8 kmh 29.67 in1004.7 mb - 0.01 in0.3 mm 0.02 in0.5 mm
05:30 PM 53.9°F12.2°C 49.5°F9.7°C 85% 1.9 mph W3.1 kmh W 4.0 mph6.4 kmh 29.67 in1004.7 mb - 0.01 in0.3 mm 0.01 in0.3 mm
05:20 PM 54.7°F12.6°C 49.9°F9.9°C 84% 2.4 mph W3.9 kmh W 2.0 mph3.2 kmh 29.67 in1004.7 mb - 0.00 in0.0 mm 0.00 in0.0 mm
05:10 PM 55.0°F12.8°C 49.3°F9.6°C 81% 3.2 mph W5.1 kmh W 3.0 mph4.8 kmh 29.67 in1004.7 mb - 0.00 in0.0 mm 0.00 in0.0 mm
05:00 PM 55.4°F13.0°C 49.0°F9.4°C 79% 2.3 mph W3.7 kmh W 3.0 mph4.8 kmh 29.67 in1004.7 mb - 0.00 in0.0 mm 0.00 in0.0 mm
04:50 PM 55.9°F13.3°C 48.8°F9.3°C 77% 2.6 mph WNW4.2 kmh WNW 4.0 mph6.4 kmh 29.67 in1004.7 mb - 0.00 in0.0 mm 0.00 in0.0 mm
04:40 PM 56.5°F13.6°C 48.7°F9.3°C 75% 0.9 mph W1.4 kmh W 4.0 mph6.4 kmh 29.67 in1004.7 mb - 0.00 in0.0 mm 0.00 in0.0 mm
04:30 PM 57.2°F14.0°C 47.9°F8.8°C 71% 1.1 mph WSW1.8 kmh WSW 3.0 mph4.8 kmh 29.66 in1004.4 mb - 0.00 in0.0 mm 0.00 in0.0 mm
04:20 PM 57.8°F14.3°C 47.6°F8.7°C 69% 1.1 mph WSW1.8 kmh WSW 3.0 mph4.8 kmh 29.66 in1004.4 mb - 0.00 in0.0 mm 0.00 in0.0 mm
04:10 PM 58.3°F14.6°C 47.0°F8.3°C 66% 2.4 mph W3.9 kmh W 3.0 mph4.8 kmh 29.66 in1004.4 mb - 0.00 in0.0 mm 0.00 in0.0 mm
04:00 PM 58.5°F14.7°C 47.2°F8.4°C 66% 7.8 mph W12.6 kmh W 11.0 mph17.7 kmh 29.66 in1004.4 mb - 0.00 in0.0 mm 0.00 in0.0 mm
03:50 PM 59.2°F15.1°C 47.4°F8.6°C 65% 5.7 mph W9.2 kmh W 11.0 mph17.7 kmh 29.66 in1004.4 mb - 0.00 in0.0 mm 0.00 in0.0 mm
03:40 PM 59.5°F15.3°C 47.3°F8.5°C 64% 4.8 mph W7.7 kmh W 8.0 mph12.9 kmh 29.66 in1004.4 mb - 0.00 in0.0 mm 0.00 in0.0 mm
03:30 PM 59.9°F15.5°C 47.7°F8.7°C 64% 4.1 mph SW6.6 kmh SW 5.0 mph8.0 kmh 29.66 in1004.4 mb - 0.00 in0.0 mm 0.00 in0.0 mm
03:20 PM 60.9°F16.1°C 48.2°F9.0°C 63% 3.0 mph W4.8 kmh W 7.0 mph11.3 kmh 29.66 in1004.4 mb - 0.00 in0.0 mm 0.00 in0.0 mm
03:10 PM 60.5°F15.8°C 47.4°F8.6°C 62% 4.1 mph W6.6 kmh W 6.0 mph9.7 kmh 29.66 in1004.4 mb - 0.00 in0.0 mm 0.00 in0.0 mm
03:00 PM 61.0°F16.1°C 47.9°F8.8°C 62% 4.3 mph WSW6.9 kmh WSW 14.0 mph22.5 kmh 29.66 in1004.4 mb - 0.00 in0.0 mm 0.00 in0.0 mm
02:50 PM 61.4°F16.3°C 47.8°F8.8°C 61% 4.7 mph WNW7.6 kmh WNW 12.0 mph19.3 kmh 29.66 in1004.4 mb - 0.00 in0.0 mm 0.00 in0.0 mm
02:40 PM 61.1°F16.2°C 47.5°F8.6°C 61% 4.4 mph NW7.1 kmh NW 8.0 mph12.9 kmh 29.66 in1004.4 mb - 0.00 in0.0 mm 0.00 in0.0 mm
02:30 PM 61.9°F16.6°C 48.3°F9.1°C 61% 1.9 mph WNW3.1 kmh WNW 4.0 mph6.4 kmh 29.66 in1004.4 mb - 0.00 in0.0 mm 0.00 in0.0 mm
02:20 PM 61.2°F16.2°C 48.1°F8.9°C 62% 3.5 mph SW5.6 kmh SW 8.0 mph12.9 kmh 29.66 in1004.4 mb - 0.00 in0.0 mm 0.00 in0.0 mm
02:10 PM 61.5°F16.4°C 47.5°F8.6°C 60% 7.5 mph W12.1 kmh W 11.0 mph17.7 kmh 29.67 in1004.7 mb - 0.00 in0.0 mm 0.00 in0.0 mm
02:00 PM 60.7°F15.9°C 47.2°F8.4°C 61% 9.2 mph WSW14.8 kmh WSW 10.0 mph16.1 kmh 29.67 in1004.7 mb - 0.00 in0.0 mm 0.00 in0.0 mm
01:50 PM 61.2°F16.2°C 47.6°F8.7°C 61% 7.9 mph W12.7 kmh W 13.0 mph20.9 kmh 29.66 in1004.4 mb - 0.00 in0.0 mm 0.00 in0.0 mm
01:40 PM 62.6°F17.0°C 47.7°F8.7°C 58% 8.5 mph WSW13.7 kmh WSW 11.0 mph17.7 kmh 29.67 in1004.7 mb - 0.00 in0.0 mm 0.00 in0.0 mm
01:30 PM 61.8°F16.6°C 47.3°F8.5°C 59% 2.9 mph WSW4.7 kmh WSW 8.0 mph12.9 kmh 29.67 in1004.7 mb - 0.00 in0.0 mm 0.00 in0.0 mm
01:20 PM 61.6°F16.4°C 47.6°F8.7°C 60% 6.7 mph WSW10.8 kmh WSW 13.0 mph20.9 kmh 29.67 in1004.7 mb - 0.00 in0.0 mm 0.00 in0.0 mm
01:10 PM 61.4°F16.3°C 47.4°F8.6°C 60% 5.8 mph WSW9.3 kmh WSW 20.0 mph32.2 kmh 29.67 in1004.7 mb - 0.00 in0.0 mm 0.00 in0.0 mm
01:00 PM 61.6°F16.4°C 47.1°F8.4°C 59% 6.4 mph W10.3 kmh W 15.0 mph24.1 kmh 29.67 in1004.7 mb - 0.00 in0.0 mm 0.00 in0.0 mm
12:50 PM 61.3°F16.3°C 47.3°F8.5°C 60% 9.0 mph W14.5 kmh W 10.0 mph16.1 kmh 29.68 in1005.1 mb - 0.00 in0.0 mm 0.00 in0.0 mm
12:40 PM 62.0°F16.7°C 47.5°F8.6°C 59% 6.6 mph WSW10.6 kmh WSW 14.0 mph22.5 kmh 29.68 in1005.1 mb - 0.00 in0.0 mm 0.00 in0.0 mm
12:30 PM 61.8°F16.6°C 47.7°F8.7°C 60% 5.3 mph W8.5 kmh W 13.0 mph20.9 kmh 29.68 in1005.1 mb - 0.00 in0.0 mm 0.00 in0.0 mm
12:20 PM 61.1°F16.2°C 47.5°F8.6°C 61% 6.1 mph SW9.8 kmh SW 8.0 mph12.9 kmh 29.68 in1005.1 mb - 0.00 in0.0 mm 0.00 in0.0 mm
12:10 PM 60.8°F16.0°C 48.1°F8.9°C 63% 7.4 mph W11.9 kmh W 14.0 mph22.5 kmh 29.68 in1005.1 mb - 0.00 in0.0 mm 0.00 in0.0 mm
12:00 PM 60.5°F15.8°C 47.8°F8.8°C 63% 7.6 mph W12.2 kmh W 8.0 mph12.9 kmh 29.68 in1005.1 mb - 0.00 in0.0 mm 0.00 in0.0 mm
11:50 AM 58.4°F14.7°C 47.9°F8.8°C 68% 6.7 mph W10.8 kmh W 10.0 mph16.1 kmh 29.69 in1005.4 mb - 0.00 in0.0 mm 0.00 in0.0 mm
11:40 AM 57.9°F14.4°C 47.4°F8.6°C 68% 7.8 mph WSW12.6 kmh WSW 11.0 mph17.7 kmh 29.69 in1005.4 mb - 0.00 in0.0 mm 0.00 in0.0 mm
11:30 AM 57.3°F14.1°C 47.2°F8.4°C 69% 7.5 mph W12.1 kmh W 12.0 mph19.3 kmh 29.69 in1005.4 mb - 0.00 in0.0 mm 0.00 in0.0 mm
11:20 AM 57.9°F14.4°C 46.6°F8.1°C 66% 6.5 mph W10.5 kmh W 13.0 mph20.9 kmh 29.69 in1005.4 mb - 0.00 in0.0 mm 0.00 in0.0 mm
11:10 AM 58.0°F14.4°C 46.7°F8.2°C 66% 6.9 mph W11.1 kmh W 9.0 mph14.5 kmh 29.69 in1005.4 mb - 0.00 in0.0 mm 0.00 in0.0 mm
11:00 AM 57.5°F14.2°C 46.3°F7.9°C 66% 5.8 mph WSW9.3 kmh WSW 9.0 mph14.5 kmh 29.69 in1005.4 mb - 0.00 in0.0 mm 0.00 in0.0 mm
10:50 AM 57.1°F13.9°C 46.6°F8.1°C 68% 5.4 mph W8.7 kmh W 8.0 mph12.9 kmh 29.69 in1005.4 mb - 0.00 in0.0 mm 0.00 in0.0 mm
10:40 AM 57.5°F14.2°C 46.6°F8.1°C 67% 7.3 mph W11.7 kmh W 14.0 mph22.5 kmh 29.69 in1005.4 mb - 0.00 in0.0 mm 0.00 in0.0 mm
10:30 AM 57.7°F14.3°C 47.6°F8.7°C 69% 3.6 mph WSW5.8 kmh WSW 9.0 mph14.5 kmh 29.69 in1005.4 mb - 0.00 in0.0 mm 0.00 in0.0 mm
10:20 AM 56.8°F13.8°C 47.1°F8.4°C 70% 6.5 mph WSW10.5 kmh WSW 8.0 mph12.9 kmh 29.69 in1005.4 mb - 0.00 in0.0 mm 0.00 in0.0 mm
10:10 AM 57.3°F14.1°C 48.0°F8.9°C 71% 8.6 mph W13.8 kmh W 12.0 mph19.3 kmh 29.69 in1005.4 mb - 0.00 in0.0 mm 0.00 in0.0 mm
10:00 AM 56.8°F13.8°C 47.5°F8.6°C 71% 6.6 mph W10.6 kmh W 11.0 mph17.7 kmh 29.69 in1005.4 mb - 0.00 in0.0 mm 0.00 in0.0 mm
09:50 AM 56.9°F13.8°C 47.9°F8.8°C 72% 7.2 mph W11.6 kmh W 12.0 mph19.3 kmh 29.69 in1005.4 mb - 0.00 in0.0 mm 0.00 in0.0 mm
09:40 AM 56.5°F13.6°C 48.3°F9.1°C 74% 7.6 mph WSW12.2 kmh WSW 12.0 mph19.3 kmh 29.69 in1005.4 mb - 0.00 in0.0 mm 0.00 in0.0 mm
09:30 AM 57.1°F13.9°C 48.5°F9.2°C 73% 5.3 mph SSW8.5 kmh SSW 10.0 mph16.1 kmh 29.69 in1005.4 mb - 0.00 in0.0 mm 0.00 in0.0 mm
09:20 AM 56.7°F13.7°C 48.5°F9.2°C 74% 7.5 mph WSW12.1 kmh WSW 11.0 mph17.7 kmh 29.68 in1005.1 mb - 0.00 in0.0 mm 0.00 in0.0 mm
09:10 AM 56.2°F13.4°C 48.4°F9.1°C 75% 6.6 mph WSW10.6 kmh WSW 16.0 mph25.7 kmh 29.68 in1005.1 mb - 0.00 in0.0 mm 0.00 in0.0 mm
09:00 AM 55.6°F13.1°C 48.2°F9.0°C 76% 3.1 mph WSW5.0 kmh WSW 11.0 mph17.7 kmh 29.68 in1005.1 mb - 0.00 in0.0 mm 0.00 in0.0 mm
08:50 AM 55.9°F13.3°C 48.4°F9.1°C 76% 6.4 mph W10.3 kmh W 10.0 mph16.1 kmh 29.68 in1005.1 mb - 0.00 in0.0 mm 0.00 in0.0 mm
08:40 AM 56.0°F13.3°C 48.9°F9.4°C 77% 3.2 mph SW5.1 kmh SW 9.0 mph14.5 kmh 29.68 in1005.1 mb - 0.00 in0.0 mm 0.00 in0.0 mm
08:30 AM 55.6°F13.1°C 48.8°F9.3°C 78% 4.1 mph W6.6 kmh W 11.0 mph17.7 kmh 29.68 in1005.1 mb - 0.00 in0.0 mm 0.00 in0.0 mm
08:20 AM 54.8°F12.7°C 48.8°F9.3°C 80% 5.7 mph WNW9.2 kmh WNW 12.0 mph19.3 kmh 29.68 in1005.1 mb - 0.00 in0.0 mm 0.00 in0.0 mm
08:10 AM 54.6°F12.6°C 49.2°F9.6°C 82% 6.0 mph WSW9.7 kmh WSW 9.0 mph14.5 kmh 29.68 in1005.1 mb - 0.00 in0.0 mm 0.00 in0.0 mm
08:00 AM 54.6°F12.6°C 49.2°F9.6°C 82% 5.0 mph WSW8.0 kmh WSW 7.0 mph11.3 kmh 29.68 in1005.1 mb - 0.00 in0.0 mm 0.00 in0.0 mm
07:50 AM 54.5°F12.5°C 49.8°F9.9°C 84% 5.2 mph WSW8.4 kmh WSW 11.0 mph17.7 kmh 29.68 in1005.1 mb - 0.00 in0.0 mm 0.00 in0.0 mm
07:40 AM 54.1°F12.3°C 49.7°F9.8°C 85% 3.3 mph W5.3 kmh W 8.0 mph12.9 kmh 29.68 in1005.1 mb - 0.00 in0.0 mm 0.00 in0.0 mm
07:30 AM 53.9°F12.2°C 49.5°F9.7°C 85% 6.5 mph SW10.5 kmh SW 10.0 mph16.1 kmh 29.68 in1005.1 mb - 0.00 in0.0 mm 0.00 in0.0 mm
07:20 AM 53.8°F12.1°C 50.4°F10.2°C 88% 1.4 mph WSW2.3 kmh WSW 5.0 mph8.0 kmh 29.68 in1005.1 mb - 0.00 in0.0 mm 0.00 in0.0 mm
07:10 AM 53.6°F12.0°C 50.4°F10.2°C 89% 2.5 mph WSW4.0 kmh WSW 5.0 mph8.0 kmh 29.68 in1005.1 mb - 0.00 in0.0 mm 0.00 in0.0 mm
07:00 AM 53.2°F11.8°C 50.3°F10.2°C 90% 0.9 mph WSW1.4 kmh WSW 1.0 mph1.6 kmh 29.68 in1005.1 mb - 0.00 in0.0 mm 0.00 in0.0 mm
06:50 AM 52.9°F11.6°C 50.0°F10.0°C 90% 1.6 mph WSW2.6 kmh WSW 5.0 mph8.0 kmh 29.68 in1005.1 mb - 0.00 in0.0 mm 0.00 in0.0 mm
06:40 AM 52.6°F11.4°C 50.0°F10.0°C 91% 2.2 mph W3.5 kmh W 7.0 mph11.3 kmh 29.67 in1004.7 mb - 0.00 in0.0 mm 0.00 in0.0 mm
06:30 AM 52.4°F11.3°C 50.1°F10.1°C 92% 1.9 mph SW3.1 kmh SW 8.0 mph12.9 kmh 29.67 in1004.7 mb - 0.00 in0.0 mm 0.00 in0.0 mm
06:20 AM 52.4°F11.3°C 50.1°F10.1°C 92% 4.8 mph W7.7 kmh W 6.0 mph9.7 kmh 29.67 in1004.7 mb - 0.00 in0.0 mm 0.00 in0.0 mm
06:10 AM 52.3°F11.3°C 50.3°F10.2°C 93% 2.8 mph WSW4.5 kmh WSW 8.0 mph12.9 kmh 29.67 in1004.7 mb - 0.00 in0.0 mm 0.00 in0.0 mm
06:00 AM 52.4°F11.3°C 50.4°F10.2°C 93% 3.6 mph W5.8 kmh W 6.0 mph9.7 kmh 29.67 in1004.7 mb - 0.00 in0.0 mm 0.00 in0.0 mm
05:50 AM 52.3°F11.3°C 50.3°F10.2°C 93% 1.7 mph W2.7 kmh W 8.0 mph12.9 kmh 29.67 in1004.7 mb - 0.00 in0.0 mm 0.00 in0.0 mm
05:40 AM 52.2°F11.2°C 50.2°F10.1°C 93% 0.4 mph W0.6 kmh W 2.0 mph3.2 kmh 29.67 in1004.7 mb - 0.00 in0.0 mm 0.00 in0.0 mm
05:30 AM 52.1°F11.2°C 50.1°F10.1°C 93% 0.7 mph W1.1 kmh W 1.0 mph1.6 kmh 29.67 in1004.7 mb - 0.00 in0.0 mm 0.00 in0.0 mm
05:20 AM 52.0°F11.1°C 50.0°F10.0°C 93% 0.2 mph W0.3 kmh W 4.0 mph6.4 kmh 29.67 in1004.7 mb - 0.00 in0.0 mm 0.00 in0.0 mm
05:10 AM 52.1°F11.2°C 50.1°F10.1°C 93% 1.7 mph W2.7 kmh W 3.0 mph4.8 kmh 29.67 in1004.7 mb - 0.00 in0.0 mm 0.00 in0.0 mm
05:00 AM 52.2°F11.2°C 50.2°F10.1°C 93% 0.1 mph W0.2 kmh W 1.0 mph1.6 kmh 29.66 in1004.4 mb - 0.00 in0.0 mm 0.00 in0.0 mm
04:50 AM 52.1°F11.2°C 50.1°F10.1°C 93% 1.7 mph W2.7 kmh W 3.0 mph4.8 kmh 29.67 in1004.7 mb - 0.00 in0.0 mm 0.00 in0.0 mm
04:40 AM 52.2°F11.2°C 50.2°F10.1°C 93% 0.3 mph W0.5 kmh W 2.0 mph3.2 kmh 29.66 in1004.4 mb - 0.00 in0.0 mm 0.00 in0.0 mm
04:30 AM 52.3°F11.3°C 50.0°F10.0°C 92% 2.1 mph W3.4 kmh W 6.0 mph9.7 kmh 29.66 in1004.4 mb - 0.00 in0.0 mm 0.00 in0.0 mm
04:20 AM 52.4°F11.3°C 50.1°F10.1°C 92% 4.6 mph W7.4 kmh W 7.0 mph11.3 kmh 29.67 in1004.7 mb - 0.00 in0.0 mm 0.00 in0.0 mm
04:10 AM 52.4°F11.3°C 50.1°F10.1°C 92% 0.1 mph W0.2 kmh W 1.0 mph1.6 kmh 29.67 in1004.7 mb - 0.00 in0.0 mm 0.00 in0.0 mm
04:00 AM 52.4°F11.3°C 50.2°F10.1°C 92% 3.0 mph W4.8 kmh W 4.0 mph6.4 kmh 29.67 in1004.7 mb - 0.00 in0.0 mm 0.00 in0.0 mm
03:50 AM 52.4°F11.3°C 50.1°F10.1°C 92% 1.7 mph WSW2.7 kmh WSW 6.0 mph9.7 kmh 29.67 in1004.7 mb - 0.00 in0.0 mm 0.00 in0.0 mm
03:40 AM 52.4°F11.3°C 50.1°F10.1°C 92% 1.9 mph WSW3.1 kmh WSW 3.0 mph4.8 kmh 29.67 in1004.7 mb - 0.00 in0.0 mm 0.00 in0.0 mm
03:30 AM 52.4°F11.3°C 50.4°F10.2°C 93% 0.5 mph WSW0.8 kmh WSW 1.0 mph1.6 kmh 29.67 in1004.7 mb - 0.00 in0.0 mm 0.00 in0.0 mm
03:20 AM 52.4°F11.3°C 50.4°F10.2°C 93% 1.6 mph SW2.6 kmh SW 6.0 mph9.7 kmh 29.67 in1004.7 mb - 0.00 in0.0 mm 0.00 in0.0 mm
03:10 AM 52.5°F11.4°C 50.5°F10.3°C 93% 1.7 mph SSW2.7 kmh SSW 4.0 mph6.4 kmh 29.68 in1005.1 mb - 0.00 in0.0 mm 0.00 in0.0 mm
03:00 AM 52.5°F11.4°C 50.5°F10.3°C 93% 2.3 mph SSW3.7 kmh SSW 4.0 mph6.4 kmh 29.68 in1005.1 mb - 0.00 in0.0 mm 0.00 in0.0 mm
02:50 AM 52.5°F11.4°C 50.3°F10.2°C 92% 0.7 mph SW1.1 kmh SW 6.0 mph9.7 kmh 29.68 in1005.1 mb - 0.00 in0.0 mm 0.00 in0.0 mm
02:40 AM 52.6°F11.4°C 50.3°F10.2°C 92% 3.2 mph SW5.1 kmh SW 5.0 mph8.0 kmh 29.68 in1005.1 mb - 0.00 in0.0 mm 0.00 in0.0 mm
02:30 AM 52.6°F11.4°C 50.3°F10.2°C 92% 1.9 mph SSW3.1 kmh SSW 3.0 mph4.8 kmh 29.68 in1005.1 mb - 0.00 in0.0 mm 0.00 in0.0 mm
02:20 AM 52.6°F11.4°C 50.3°F10.2°C 92% 3.9 mph SSW6.3 kmh SSW 7.0 mph11.3 kmh 29.69 in1005.4 mb - 0.00 in0.0 mm 0.00 in0.0 mm
02:10 AM 52.6°F11.4°C 50.1°F10.1°C 91% 2.9 mph SW4.7 kmh SW 5.0 mph8.0 kmh 29.69 in1005.4 mb - 0.00 in0.0 mm 0.00 in0.0 mm
02:00 AM 52.7°F11.5°C 50.1°F10.1°C 91% 3.7 mph SSW6.0 kmh SSW 5.0 mph8.0 kmh 29.69 in1005.4 mb - 0.00 in0.0 mm 0.00 in0.0 mm
01:50 AM 52.7°F11.5°C 50.1°F10.1°C 91% 2.9 mph SW4.7 kmh SW 6.0 mph9.7 kmh 29.69 in1005.4 mb - 0.00 in0.0 mm 0.00 in0.0 mm
01:40 AM 52.7°F11.5°C 50.1°F10.1°C 91% 3.6 mph SSW5.8 kmh SSW 5.0 mph8.0 kmh 29.69 in1005.4 mb - 0.00 in0.0 mm 0.00 in0.0 mm
01:30 AM 52.7°F11.5°C 50.1°F10.1°C 91% 2.3 mph SSW3.7 kmh SSW 6.0 mph9.7 kmh 29.70 in1005.8 mb - 0.00 in0.0 mm 0.00 in0.0 mm
01:20 AM 52.7°F11.5°C 50.1°F10.1°C 91% 1.8 mph SW2.9 kmh SW 5.0 mph8.0 kmh 29.70 in1005.8 mb - 0.00 in0.0 mm 0.00 in0.0 mm
01:10 AM 52.7°F11.5°C 50.1°F10.1°C 91% 1.9 mph SW3.1 kmh SW 4.0 mph6.4 kmh 29.70 in1005.8 mb - 0.00 in0.0 mm 0.00 in0.0 mm
01:00 AM 52.8°F11.6°C 50.2°F10.1°C 91% 4.1 mph SW6.6 kmh SW 7.0 mph11.3 kmh 29.71 in1006.1 mb - 0.00 in0.0 mm 0.00 in0.0 mm
12:50 AM 52.9°F11.6°C 50.3°F10.2°C 91% 2.5 mph SW4.0 kmh SW 7.0 mph11.3 kmh 29.71 in1006.1 mb - 0.00 in0.0 mm 0.00 in0.0 mm
12:40 AM 52.9°F11.6°C 50.3°F10.2°C 91% 2.6 mph SW4.2 kmh SW 5.0 mph8.0 kmh 29.72 in1006.4 mb - 0.00 in0.0 mm 0.00 in0.0 mm
12:30 AM 52.9°F11.6°C 50.3°F10.2°C 91% 2.5 mph WSW4.0 kmh WSW 4.0 mph6.4 kmh 29.72 in1006.4 mb - 0.00 in0.0 mm 0.00 in0.0 mm
12:20 AM 53.0°F11.7°C 50.4°F10.2°C 91% 0.9 mph W1.4 kmh W 3.0 mph4.8 kmh 29.72 in1006.4 mb - 0.00 in0.0 mm 0.00 in0.0 mm
12:10 AM 52.9°F11.6°C 50.7°F10.4°C 92% 2.1 mph SW3.4 kmh SW 6.0 mph9.7 kmh 29.72 in1006.4 mb - 0.00 in0.0 mm 0.00 in0.0 mm
12:00 AM 52.8°F11.6°C 50.5°F10.3°C 92% 1.4 mph SW2.3 kmh SW 3.0 mph4.8 kmh 29.73 in1006.8 mb - 0.00 in0.0 mm 0.00 in0.0 mm